HOURLY OBS INDEX

036

Central West

BLACKALL AIRPORT

Site: 036034
Alt: 281.3m
165km SE of LONGREACH


  Time     Wind        Temp  DP   Baro     Rain since   Rain past  Vis(m), Cloud(base in m), Weather
  local        km/h                         9am  last   hr   10m    
Wed 15:00    W 15/ 24  32.4  2.5  1012.4    0.0   0.0   0.0   0.0   ----- 
Wed 15:30    W 15/ 24  32.0  2.1  1012.1    0.0   0.0   0.0   0.0   ----- 
Wed 16:00    W 15/ 24  32.3  2.4  1012.0    0.0   0.0   0.0   0.0   ----- 
Wed 16:30    W 17/ 24  32.5  1.6  1012.2    0.0   0.0   0.0   0.0   ----- 
Wed 17:00    W 11/ 20  32.3  0.4  1012.3    0.0   0.0   0.0   0.0   ----- 
Wed 17:30  WSW 15/ 26  31.6 -1.2  1012.5    0.0   0.0   0.0   0.0   ----- 
Wed 18:00    W  9/ 11  30.4 -2.2  1012.6    0.0   0.0   0.0   0.0   ----- 
Wed 18:30  WNW  9/  9  28.2 -1.8  1013.0    0.0   0.0   0.0   0.0   ----- 
Wed 19:00    W  7/ 13  26.5 -1.3  1013.2    0.0   0.0   0.0   0.0   ----- 
Wed 19:30  WSW  7/  9  24.3 -1.5  1013.6    0.0   0.0   0.0   0.0   ----- 
Wed 20:00  WSW  9/ 11  22.8 -1.3  1014.0    0.0   0.0   0.0   0.0   ----- 
Wed 20:30  WSW 11/ 13  23.5 -2.9  1014.6    0.0   0.0   0.0   0.0   ----- 

LONGREACH AERO

Site: 036031
Alt: 192.2m
5km E of LONGREACH


  Time     Wind        Temp  DP   Baro     Rain since   Rain past  Vis(m), Cloud(base in m), Weather
  local        km/h                         9am  last   hr   10m    
Wed 15:00  WSW  9/ 19  33.1  1.0  1011.8    0.0   0.0   0.0   0.0   10000 
Wed 15:30  WSW 19/ 28  33.3  1.2  1011.6    0.0   0.0   0.0   0.0   10000 
Wed 16:00   NW 13/ 24  33.6  0.3  1011.4    0.0   0.0   0.0   0.0   10000 
Wed 16:30  WNW  9/ 17  33.7  0.4  1011.6    0.0   0.0   0.0   0.0   10000 
Wed 17:00  SSW 11/ 17  33.4  0.1  1011.8    0.0   0.0   0.0   0.0   10000 
Wed 17:30  WSW 13/ 17  33.0 -0.2  1011.9    0.0   0.0   0.0   0.0   10000 
Wed 18:00  WSW 13/ 17  31.9 -1.0  1012.0    0.0   0.0   0.0   0.0   10000 
Wed 18:30  SSW  9/ 13  29.7 -2.7  1012.4    0.0   0.0   0.0   0.0   10000 
Wed 19:00  SSW 13/ 15  28.5 -2.6  1012.8    0.0   0.0   0.0   0.0   10000 
Wed 19:30  SSW 17/ 20  27.9 -4.1  1013.2    0.0   0.0   0.0   0.0   10000 
Wed 20:00  SSW 15/ 17  26.9 -7.2  1013.6    0.0   0.0   0.0   0.0   10000 
Wed 20:30    S 15/ 17  25.8 -9.4  1013.9    0.0   0.0   0.0   0.0   10000